sensor_id;sensor_type;location;lat;lon;timestamp;P1;durP1;ratioP1;P2;durP2;ratioP2
81884;SDS011;71340;55.154;30.266;2023-07-31T00:02:01;6.00;;;5.40;;
81884;SDS011;71340;55.154;30.266;2023-07-31T00:04:26;9.07;;;4.97;;
81884;SDS011;71340;55.154;30.266;2023-07-31T00:06:52;6.43;;;5.03;;
81884;SDS011;71340;55.154;30.266;2023-07-31T00:09:17;6.85;;;5.07;;
81884;SDS011;71340;55.154;30.266;2023-07-31T00:11:42;7.70;;;5.00;;
81884;SDS011;71340;55.154;30.266;2023-07-31T00:14:08;6.67;;;5.10;;
81884;SDS011;71340;55.154;30.266;2023-07-31T00:16:33;7.60;;;5.13;;
81884;SDS011;71340;55.154;30.266;2023-07-31T00:18:59;7.30;;;5.20;;
81884;SDS011;71340;55.154;30.266;2023-07-31T00:21:24;8.20;;;4.67;;
81884;SDS011;71340;55.154;30.266;2023-07-31T00:23:49;5.50;;;4.80;;
81884;SDS011;71340;55.154;30.266;2023-07-31T00:26:15;7.00;;;5.30;;
81884;SDS011;71340;55.154;30.266;2023-07-31T00:28:40;11.13;;;4.97;;
81884;SDS011;71340;55.154;30.266;2023-07-31T00:31:06;6.73;;;5.00;;
81884;SDS011;71340;55.154;30.266;2023-07-31T00:33:31;7.90;;;5.30;;
81884;SDS011;71340;55.154;30.266;2023-07-31T00:35:56;10.18;;;5.00;;
81884;SDS011;71340;55.154;30.266;2023-07-31T00:38:22;9.73;;;5.32;;
81884;SDS011;71340;55.154;30.266;2023-07-31T00:40:47;7.13;;;5.17;;
81884;SDS011;71340;55.154;30.266;2023-07-31T00:43:13;6.23;;;5.23;;
81884;SDS011;71340;55.154;30.266;2023-07-31T00:45:38;8.20;;;4.77;;
81884;SDS011;71340;55.154;30.266;2023-07-31T00:48:04;6.67;;;5.30;;
81884;SDS011;71340;55.154;30.266;2023-07-31T00:50:31;8.35;;;5.13;;
81884;SDS011;71340;55.154;30.266;2023-07-31T00:52:56;8.47;;;5.77;;
81884;SDS011;71340;55.154;30.266;2023-07-31T00:55:22;7.30;;;5.13;;
81884;SDS011;71340;55.154;30.266;2023-07-31T00:57:47;5.95;;;5.35;;
81884;SDS011;71340;55.154;30.266;2023-07-31T01:00:13;7.30;;;5.33;;
81884;SDS011;71340;55.154;30.266;2023-07-31T01:02:38;5.85;;;5.25;;
81884;SDS011;71340;55.154;30.266;2023-07-31T01:05:04;8.60;;;5.87;;
81884;SDS011;71340;55.154;30.266;2023-07-31T01:07:31;6.90;;;5.57;;
81884;SDS011;71340;55.154;30.266;2023-07-31T01:10:10;6.60;;;5.88;;
81884;SDS011;71340;55.154;30.266;2023-07-31T01:12:41;6.05;;;5.43;;
81884;SDS011;71340;55.154;30.266;2023-07-31T01:15:07;9.85;;;5.78;;
81884;SDS011;71340;55.154;30.266;2023-07-31T01:17:37;6.82;;;5.10;;
81884;SDS011;71340;55.154;30.266;2023-07-31T01:20:05;8.23;;;5.88;;
81884;SDS011;71340;55.154;30.266;2023-07-31T01:28:25;5.77;;;5.03;;
81884;SDS011;71340;55.154;30.266;2023-07-31T01:30:58;6.95;;;5.47;;
81884;SDS011;71340;55.154;30.266;2023-07-31T01:33:25;11.13;;;5.88;;
81884;SDS011;71340;55.154;30.266;2023-07-31T01:35:51;6.17;;;5.57;;
81884;SDS011;71340;55.154;30.266;2023-07-31T01:38:20;7.15;;;5.57;;
81884;SDS011;71340;55.154;30.266;2023-07-31T01:40:48;7.50;;;5.97;;
81884;SDS011;71340;55.154;30.266;2023-07-31T01:43:16;9.73;;;6.07;;
81884;SDS011;71340;55.154;30.266;2023-07-31T01:45:42;7.40;;;5.80;;
81884;SDS011;71340;55.154;30.266;2023-07-31T01:48:07;6.32;;;5.65;;
81884;SDS011;71340;55.154;30.266;2023-07-31T01:50:32;6.30;;;5.60;;
81884;SDS011;71340;55.154;30.266;2023-07-31T01:52:58;6.53;;;5.73;;
81884;SDS011;71340;55.154;30.266;2023-07-31T01:55:23;9.90;;;6.20;;
81884;SDS011;71340;55.154;30.266;2023-07-31T01:57:48;12.33;;;6.07;;
81884;SDS011;71340;55.154;30.266;2023-07-31T02:00:14;7.60;;;5.30;;
81884;SDS011;71340;55.154;30.266;2023-07-31T02:02:39;7.35;;;5.68;;
81884;SDS011;71340;55.154;30.266;2023-07-31T02:05:05;7.28;;;6.30;;
81884;SDS011;71340;55.154;30.266;2023-07-31T02:07:30;7.07;;;6.17;;
81884;SDS011;71340;55.154;30.266;2023-07-31T02:09:56;7.27;;;6.00;;
81884;SDS011;71340;55.154;30.266;2023-07-31T02:12:21;11.20;;;6.27;;
81884;SDS011;71340;55.154;30.266;2023-07-31T02:14:46;9.32;;;5.88;;
81884;SDS011;71340;55.154;30.266;2023-07-31T02:17:12;9.65;;;6.15;;
81884;SDS011;71340;55.154;30.266;2023-07-31T02:19:37;8.27;;;5.93;;
81884;SDS011;71340;55.154;30.266;2023-07-31T02:22:03;7.40;;;6.40;;
81884;SDS011;71340;55.154;30.266;2023-07-31T02:24:28;8.40;;;6.03;;
81884;SDS011;71340;55.154;30.266;2023-07-31T02:26:54;7.78;;;6.32;;
81884;SDS011;71340;55.154;30.266;2023-07-31T02:29:19;12.43;;;5.90;;
81884;SDS011;71340;55.154;30.266;2023-07-31T02:31:44;6.67;;;5.80;;
81884;SDS011;71340;55.154;30.266;2023-07-31T02:34:10;6.30;;;5.53;;
81884;SDS011;71340;55.154;30.266;2023-07-31T02:36:35;7.43;;;5.90;;
81884;SDS011;71340;55.154;30.266;2023-07-31T02:39:00;9.87;;;6.63;;
81884;SDS011;71340;55.154;30.266;2023-07-31T02:41:26;9.10;;;6.30;;
81884;SDS011;71340;55.154;30.266;2023-07-31T02:43:51;8.23;;;6.20;;
81884;SDS011;71340;55.154;30.266;2023-07-31T02:46:17;10.65;;;5.55;;
81884;SDS011;71340;55.154;30.266;2023-07-31T02:48:42;7.23;;;6.03;;
81884;SDS011;71340;55.154;30.266;2023-07-31T02:51:07;8.47;;;6.13;;
81884;SDS011;71340;55.154;30.266;2023-07-31T02:53:33;8.90;;;6.03;;
81884;SDS011;71340;55.154;30.266;2023-07-31T02:55:58;6.38;;;5.50;;
81884;SDS011;71340;55.154;30.266;2023-07-31T02:58:23;8.10;;;6.80;;
81884;SDS011;71340;55.154;30.266;2023-07-31T03:00:49;8.50;;;6.10;;
81884;SDS011;71340;55.154;30.266;2023-07-31T03:03:14;7.70;;;6.20;;
81884;SDS011;71340;55.154;30.266;2023-07-31T03:05:40;8.30;;;6.07;;
81884;SDS011;71340;55.154;30.266;2023-07-31T03:08:05;7.00;;;5.77;;
81884;SDS011;71340;55.154;30.266;2023-07-31T03:10:30;7.10;;;5.80;;
81884;SDS011;71340;55.154;30.266;2023-07-31T03:12:56;8.57;;;5.73;;
81884;SDS011;71340;55.154;30.266;2023-07-31T03:15:21;9.43;;;6.45;;
81884;SDS011;71340;55.154;30.266;2023-07-31T03:17:46;8.90;;;5.70;;
81884;SDS011;71340;55.154;30.266;2023-07-31T03:20:12;11.00;;;6.17;;
81884;SDS011;71340;55.154;30.266;2023-07-31T03:22:37;11.03;;;6.20;;
81884;SDS011;71340;55.154;30.266;2023-07-31T03:25:03;6.20;;;5.60;;
81884;SDS011;71340;55.154;30.266;2023-07-31T03:27:29;12.30;;;5.93;;
81884;SDS011;71340;55.154;30.266;2023-07-31T03:29:54;8.00;;;6.17;;
81884;SDS011;71340;55.154;30.266;2023-07-31T03:32:20;7.07;;;6.03;;
81884;SDS011;71340;55.154;30.266;2023-07-31T03:34:45;10.18;;;6.30;;
81884;SDS011;71340;55.154;30.266;2023-07-31T03:37:10;9.00;;;6.10;;
81884;SDS011;71340;55.154;30.266;2023-07-31T03:39:36;9.17;;;6.27;;
81884;SDS011;71340;55.154;30.266;2023-07-31T03:42:01;6.27;;;5.67;;
81884;SDS011;71340;55.154;30.266;2023-07-31T03:44:27;7.75;;;6.50;;
81884;SDS011;71340;55.154;30.266;2023-07-31T03:46:52;9.80;;;6.13;;
81884;SDS011;71340;55.154;30.266;2023-07-31T03:49:18;8.23;;;6.10;;
81884;SDS011;71340;55.154;30.266;2023-07-31T03:51:43;7.07;;;5.73;;
81884;SDS011;71340;55.154;30.266;2023-07-31T03:54:09;9.25;;;6.20;;
81884;SDS011;71340;55.154;30.266;2023-07-31T03:56:34;6.63;;;5.87;;
81884;SDS011;71340;55.154;30.266;2023-07-31T03:59:00;7.63;;;6.20;;
81884;SDS011;71340;55.154;30.266;2023-07-31T04:01:25;7.77;;;6.63;;
81884;SDS011;71340;55.154;30.266;2023-07-31T04:03:51;8.27;;;5.97;;
81884;SDS011;71340;55.154;30.266;2023-07-31T04:06:16;6.13;;;5.53;;
81884;SDS011;71340;55.154;30.266;2023-07-31T04:08:44;6.27;;;5.67;;
81884;SDS011;71340;55.154;30.266;2023-07-31T04:11:10;7.00;;;6.03;;
81884;SDS011;71340;55.154;30.266;2023-07-31T04:13:36;9.67;;;6.10;;
81884;SDS011;71340;55.154;30.266;2023-07-31T04:16:01;7.20;;;6.50;;
81884;SDS011;71340;55.154;30.266;2023-07-31T04:18:27;9.65;;;6.28;;
81884;SDS011;71340;55.154;30.266;2023-07-31T04:20:52;6.20;;;5.60;;
81884;SDS011;71340;55.154;30.266;2023-07-31T04:23:17;7.00;;;6.30;;
81884;SDS011;71340;55.154;30.266;2023-07-31T04:25:43;6.97;;;6.27;;
81884;SDS011;71340;55.154;30.266;2023-07-31T04:28:08;7.93;;;6.40;;
81884;SDS011;71340;55.154;30.266;2023-07-31T04:30:33;8.57;;;6.80;;
81884;SDS011;71340;55.154;30.266;2023-07-31T04:32:59;7.63;;;6.60;;
81884;SDS011;71340;55.154;30.266;2023-07-31T04:35:24;8.60;;;5.90;;
81884;SDS011;71340;55.154;30.266;2023-07-31T04:37:50;9.00;;;6.40;;
81884;SDS011;71340;55.154;30.266;2023-07-31T04:40:15;8.17;;;6.33;;
81884;SDS011;71340;55.154;30.266;2023-07-31T04:42:41;11.77;;;7.15;;
81884;SDS011;71340;55.154;30.266;2023-07-31T04:45:08;9.47;;;6.77;;
81884;SDS011;71340;55.154;30.266;2023-07-31T04:47:34;8.50;;;6.28;;
81884;SDS011;71340;55.154;30.266;2023-07-31T04:49:59;7.40;;;6.00;;
81884;SDS011;71340;55.154;30.266;2023-07-31T04:52:24;7.83;;;5.90;;
81884;SDS011;71340;55.154;30.266;2023-07-31T04:54:49;10.93;;;6.10;;
81884;SDS011;71340;55.154;30.266;2023-07-31T04:57:15;10.17;;;6.50;;
81884;SDS011;71340;55.154;30.266;2023-07-31T04:59:40;7.57;;;6.73;;
81884;SDS011;71340;55.154;30.266;2023-07-31T05:02:06;7.47;;;5.83;;
81884;SDS011;71340;55.154;30.266;2023-07-31T05:04:33;10.15;;;6.28;;
81884;SDS011;71340;55.154;30.266;2023-07-31T05:06:58;6.53;;;5.80;;
81884;SDS011;71340;55.154;30.266;2023-07-31T05:09:23;13.43;;;6.50;;
81884;SDS011;71340;55.154;30.266;2023-07-31T05:11:49;6.80;;;6.10;;
81884;SDS011;71340;55.154;30.266;2023-07-31T05:14:14;8.03;;;6.17;;
81884;SDS011;71340;55.154;30.266;2023-07-31T05:16:40;10.37;;;6.30;;
81884;SDS011;71340;55.154;30.266;2023-07-31T05:19:06;7.50;;;6.70;;
81884;SDS011;71340;55.154;30.266;2023-07-31T05:21:31;8.45;;;6.30;;
81884;SDS011;71340;55.154;30.266;2023-07-31T05:23:56;9.67;;;6.30;;
81884;SDS011;71340;55.154;30.266;2023-07-31T05:26:22;7.50;;;6.70;;
81884;SDS011;71340;55.154;30.266;2023-07-31T05:28:47;6.77;;;5.50;;
81884;SDS011;71340;55.154;30.266;2023-07-31T05:31:13;7.63;;;5.83;;
81884;SDS011;71340;55.154;30.266;2023-07-31T05:33:38;12.13;;;6.72;;
81884;SDS011;71340;55.154;30.266;2023-07-31T05:36:04;9.67;;;6.73;;
81884;SDS011;71340;55.154;30.266;2023-07-31T05:38:29;14.03;;;6.70;;
81884;SDS011;71340;55.154;30.266;2023-07-31T05:40:55;8.30;;;6.50;;
81884;SDS011;71340;55.154;30.266;2023-07-31T05:43:20;8.07;;;6.68;;
81884;SDS011;71340;55.154;30.266;2023-07-31T05:45:46;8.67;;;6.37;;
81884;SDS011;71340;55.154;30.266;2023-07-31T05:48:11;8.23;;;5.87;;
81884;SDS011;71340;55.154;30.266;2023-07-31T05:50:36;6.77;;;6.00;;
81884;SDS011;71340;55.154;30.266;2023-07-31T05:53:04;7.70;;;6.32;;
81884;SDS011;71340;55.154;30.266;2023-07-31T05:55:29;8.30;;;5.93;;
81884;SDS011;71340;55.154;30.266;2023-07-31T05:57:55;11.03;;;5.77;;
81884;SDS011;71340;55.154;30.266;2023-07-31T06:00:20;8.53;;;5.77;;
81884;SDS011;71340;55.154;30.266;2023-07-31T06:02:47;8.23;;;5.83;;
81884;SDS011;71340;55.154;30.266;2023-07-31T06:05:12;10.68;;;6.68;;
81884;SDS011;71340;55.154;30.266;2023-07-31T06:07:38;10.13;;;6.87;;
81884;SDS011;71340;55.154;30.266;2023-07-31T06:10:03;9.20;;;6.27;;
81884;SDS011;71340;55.154;30.266;2023-07-31T06:12:33;8.93;;;6.25;;
81884;SDS011;71340;55.154;30.266;2023-07-31T06:14:59;9.30;;;5.80;;
81884;SDS011;71340;55.154;30.266;2023-07-31T06:17:25;8.60;;;5.83;;
81884;SDS011;71340;55.154;30.266;2023-07-31T06:19:51;8.18;;;5.82;;
81884;SDS011;71340;55.154;30.266;2023-07-31T06:22:17;6.93;;;5.37;;
81884;SDS011;71340;55.154;30.266;2023-07-31T06:24:42;7.73;;;5.43;;
81884;SDS011;71340;55.154;30.266;2023-07-31T06:27:07;6.90;;;5.37;;
81884;SDS011;71340;55.154;30.266;2023-07-31T06:29:33;7.43;;;5.30;;
81884;SDS011;71340;55.154;30.266;2023-07-31T06:31:58;6.70;;;5.70;;
81884;SDS011;71340;55.154;30.266;2023-07-31T06:34:24;6.83;;;5.00;;
81884;SDS011;71340;55.154;30.266;2023-07-31T06:36:49;6.70;;;5.00;;
81884;SDS011;71340;55.154;30.266;2023-07-31T06:39:15;7.20;;;5.30;;
81884;SDS011;71340;55.154;30.266;2023-07-31T06:41:41;5.80;;;5.20;;
81884;SDS011;71340;55.154;30.266;2023-07-31T06:44:07;8.18;;;4.80;;
81884;SDS011;71340;55.154;30.266;2023-07-31T06:46:33;7.67;;;4.20;;
81884;SDS011;71340;55.154;30.266;2023-07-31T06:48:58;5.03;;;4.10;;
81884;SDS011;71340;55.154;30.266;2023-07-31T06:51:24;6.40;;;4.20;;
81884;SDS011;71340;55.154;30.266;2023-07-31T06:53:49;7.00;;;4.27;;
81884;SDS011;71340;55.154;30.266;2023-07-31T06:56:14;5.83;;;4.20;;
81884;SDS011;71340;55.154;30.266;2023-07-31T06:58:39;11.13;;;4.83;;
81884;SDS011;71340;55.154;30.266;2023-07-31T07:01:05;4.90;;;4.10;;
81884;SDS011;71340;55.154;30.266;2023-07-31T07:03:30;4.57;;;4.07;;
81884;SDS011;71340;55.154;30.266;2023-07-31T07:05:56;11.60;;;4.50;;
81884;SDS011;71340;55.154;30.266;2023-07-31T07:08:21;5.60;;;4.45;;
81884;SDS011;71340;55.154;30.266;2023-07-31T07:10:47;4.73;;;3.93;;
81884;SDS011;71340;55.154;30.266;2023-07-31T07:13:12;7.20;;;4.15;;
81884;SDS011;71340;55.154;30.266;2023-07-31T07:15:38;6.03;;;4.00;;
81884;SDS011;71340;55.154;30.266;2023-07-31T07:18:04;5.15;;;3.63;;
81884;SDS011;71340;55.154;30.266;2023-07-31T07:20:29;4.40;;;3.73;;
81884;SDS011;71340;55.154;30.266;2023-07-31T07:22:55;4.97;;;3.80;;
81884;SDS011;71340;55.154;30.266;2023-07-31T07:25:20;6.17;;;3.93;;
81884;SDS011;71340;55.154;30.266;2023-07-31T07:27:48;7.30;;;5.40;;
81884;SDS011;71340;55.154;30.266;2023-07-31T07:30:14;5.10;;;4.10;;
81884;SDS011;71340;55.154;30.266;2023-07-31T07:32:39;5.17;;;4.07;;
81884;SDS011;71340;55.154;30.266;2023-07-31T07:35:05;5.33;;;3.73;;
81884;SDS011;71340;55.154;30.266;2023-07-31T07:37:31;4.65;;;3.67;;
81884;SDS011;71340;55.154;30.266;2023-07-31T07:39:56;4.20;;;3.80;;
81884;SDS011;71340;55.154;30.266;2023-07-31T07:42:22;5.32;;;3.97;;
81884;SDS011;71340;55.154;30.266;2023-07-31T07:44:47;4.87;;;4.17;;
81884;SDS011;71340;55.154;30.266;2023-07-31T07:47:13;4.27;;;3.87;;
81884;SDS011;71340;55.154;30.266;2023-07-31T07:49:38;5.63;;;3.90;;
81884;SDS011;71340;55.154;30.266;2023-07-31T07:52:04;5.47;;;4.50;;
81884;SDS011;71340;55.154;30.266;2023-07-31T07:54:30;3.90;;;3.53;;
81884;SDS011;71340;55.154;30.266;2023-07-31T07:56:56;4.28;;;3.65;;
81884;SDS011;71340;55.154;30.266;2023-07-31T07:59:21;5.23;;;3.83;;
81884;SDS011;71340;55.154;30.266;2023-07-31T08:01:46;6.00;;;4.00;;
81884;SDS011;71340;55.154;30.266;2023-07-31T08:04:13;4.10;;;3.65;;
81884;SDS011;71340;55.154;30.266;2023-07-31T08:06:38;4.07;;;3.40;;
81884;SDS011;71340;55.154;30.266;2023-07-31T08:09:04;4.33;;;3.50;;
81884;SDS011;71340;55.154;30.266;2023-07-31T08:11:31;4.63;;;3.53;;
81884;SDS011;71340;55.154;30.266;2023-07-31T08:13:57;4.93;;;4.00;;
81884;SDS011;71340;55.154;30.266;2023-07-31T08:16:22;7.23;;;4.03;;
81884;SDS011;71340;55.154;30.266;2023-07-31T08:18:48;5.33;;;3.50;;
81884;SDS011;71340;55.154;30.266;2023-07-31T08:21:14;4.00;;;3.20;;
81884;SDS011;71340;55.154;30.266;2023-07-31T08:23:40;3.70;;;3.00;;
81884;SDS011;71340;55.154;30.266;2023-07-31T08:26:05;4.57;;;4.18;;
81884;SDS011;71340;55.154;30.266;2023-07-31T08:28:30;6.23;;;3.70;;
81884;SDS011;71340;55.154;30.266;2023-07-31T08:30:56;5.67;;;3.37;;
81884;SDS011;71340;55.154;30.266;2023-07-31T08:33:21;5.50;;;3.60;;
81884;SDS011;71340;55.154;30.266;2023-07-31T08:35:46;5.40;;;3.13;;
81884;SDS011;71340;55.154;30.266;2023-07-31T08:38:12;5.47;;;3.15;;
81884;SDS011;71340;55.154;30.266;2023-07-31T08:40:37;3.90;;;3.27;;
81884;SDS011;71340;55.154;30.266;2023-07-31T08:43:03;4.07;;;2.80;;
81884;SDS011;71340;55.154;30.266;2023-07-31T08:45:29;3.08;;;2.78;;
81884;SDS011;71340;55.154;30.266;2023-07-31T08:47:55;3.37;;;3.00;;
81884;SDS011;71340;55.154;30.266;2023-07-31T08:50:22;3.45;;;3.15;;
81884;SDS011;71340;55.154;30.266;2023-07-31T08:52:48;3.90;;;2.87;;
81884;SDS011;71340;55.154;30.266;2023-07-31T08:55:14;6.38;;;3.15;;
81884;SDS011;71340;55.154;30.266;2023-07-31T08:57:40;4.03;;;2.80;;
81884;SDS011;71340;55.154;30.266;2023-07-31T09:00:08;3.42;;;2.95;;
81884;SDS011;71340;55.154;30.266;2023-07-31T09:02:35;3.88;;;3.30;;
81884;SDS011;71340;55.154;30.266;2023-07-31T09:05:06;4.80;;;3.53;;
81884;SDS011;71340;55.154;30.266;2023-07-31T09:07:34;3.75;;;3.00;;
81884;SDS011;71340;55.154;30.266;2023-07-31T09:10:01;3.97;;;2.95;;
81884;SDS011;71340;55.154;30.266;2023-07-31T09:12:27;3.33;;;3.03;;
81884;SDS011;71340;55.154;30.266;2023-07-31T09:14:53;3.42;;;3.10;;
81884;SDS011;71340;55.154;30.266;2023-07-31T09:17:28;4.83;;;3.10;;
81884;SDS011;71340;55.154;30.266;2023-07-31T09:19:55;7.28;;;3.10;;
81884;SDS011;71340;55.154;30.266;2023-07-31T09:22:31;5.63;;;2.60;;
81884;SDS011;71340;55.154;30.266;2023-07-31T09:25:32;6.47;;;3.00;;
81884;SDS011;71340;55.154;30.266;2023-07-31T09:27:59;3.27;;;2.80;;
81884;SDS011;71340;55.154;30.266;2023-07-31T09:30:26;4.47;;;3.00;;
81884;SDS011;71340;55.154;30.266;2023-07-31T09:32:59;4.90;;;2.87;;
81884;SDS011;71340;55.154;30.266;2023-07-31T09:35:30;5.57;;;3.28;;
81884;SDS011;71340;55.154;30.266;2023-07-31T09:37:57;3.88;;;3.20;;
81884;SDS011;71340;55.154;30.266;2023-07-31T09:40:28;5.43;;;3.23;;
81884;SDS011;71340;55.154;30.266;2023-07-31T09:42:55;3.63;;;2.90;;
81884;SDS011;71340;55.154;30.266;2023-07-31T09:45:24;3.90;;;3.50;;
81884;SDS011;71340;55.154;30.266;2023-07-31T09:47:50;6.47;;;4.50;;
81884;SDS011;71340;55.154;30.266;2023-07-31T09:50:16;5.28;;;2.92;;
81884;SDS011;71340;55.154;30.266;2023-07-31T09:52:41;4.20;;;2.90;;
81884;SDS011;71340;55.154;30.266;2023-07-31T09:55:08;6.20;;;2.90;;
81884;SDS011;71340;55.154;30.266;2023-07-31T09:57:34;4.87;;;3.17;;
81884;SDS011;71340;55.154;30.266;2023-07-31T10:00:01;6.50;;;3.15;;
81884;SDS011;71340;55.154;30.266;2023-07-31T10:02:41;4.60;;;2.75;;
81884;SDS011;71340;55.154;30.266;2023-07-31T10:05:13;3.22;;;2.85;;
81884;SDS011;71340;55.154;30.266;2023-07-31T10:07:43;6.53;;;2.80;;
81884;SDS011;71340;55.154;30.266;2023-07-31T10:10:15;3.80;;;3.28;;
81884;SDS011;71340;55.154;30.266;2023-07-31T10:12:41;4.32;;;2.70;;
81884;SDS011;71340;55.154;30.266;2023-07-31T10:15:12;4.17;;;2.70;;
81884;SDS011;71340;55.154;30.266;2023-07-31T10:17:39;3.47;;;2.88;;
81884;SDS011;71340;55.154;30.266;2023-07-31T10:20:05;4.80;;;3.20;;
81884;SDS011;71340;55.154;30.266;2023-07-31T10:22:32;4.10;;;3.70;;
81884;SDS011;71340;55.154;30.266;2023-07-31T10:24:59;5.10;;;2.90;;
81884;SDS011;71340;55.154;30.266;2023-07-31T10:27:25;3.80;;;3.25;;
81884;SDS011;71340;55.154;30.266;2023-07-31T10:29:52;5.73;;;3.40;;
81884;SDS011;71340;55.154;30.266;2023-07-31T10:32:19;5.25;;;3.28;;
81884;SDS011;71340;55.154;30.266;2023-07-31T10:34:45;4.50;;;3.15;;
81884;SDS011;71340;55.154;30.266;2023-07-31T10:37:29;7.80;;;3.37;;
81884;SDS011;71340;55.154;30.266;2023-07-31T10:40:03;6.90;;;3.22;;
81884;SDS011;71340;55.154;30.266;2023-07-31T10:42:36;4.57;;;2.95;;
81884;SDS011;71340;55.154;30.266;2023-07-31T10:45:08;7.27;;;3.10;;
81884;SDS011;71340;55.154;30.266;2023-07-31T10:47:37;4.15;;;2.95;;
81884;SDS011;71340;55.154;30.266;2023-07-31T10:50:24;4.63;;;2.97;;
81884;SDS011;71340;55.154;30.266;2023-07-31T10:52:50;3.83;;;2.80;;
81884;SDS011;71340;55.154;30.266;2023-07-31T10:55:33;3.80;;;3.42;;
81884;SDS011;71340;55.154;30.266;2023-07-31T10:58:10;3.28;;;2.97;;
81884;SDS011;71340;55.154;30.266;2023-07-31T11:00:42;3.70;;;2.97;;
81884;SDS011;71340;55.154;30.266;2023-07-31T11:03:17;3.88;;;3.08;;
81884;SDS011;71340;55.154;30.266;2023-07-31T11:08:15;3.47;;;3.00;;
81884;SDS011;71340;55.154;30.266;2023-07-31T11:10:45;4.95;;;3.47;;
81884;SDS011;71340;55.154;30.266;2023-07-31T11:13:12;5.00;;;3.10;;
81884;SDS011;71340;55.154;30.266;2023-07-31T11:15:38;3.88;;;3.25;;
81884;SDS011;71340;55.154;30.266;2023-07-31T11:18:04;3.85;;;3.40;;
81884;SDS011;71340;55.154;30.266;2023-07-31T11:20:31;4.47;;;3.27;;
81884;SDS011;71340;55.154;30.266;2023-07-31T11:23:01;5.38;;;3.45;;
81884;SDS011;71340;55.154;30.266;2023-07-31T11:25:30;3.70;;;2.78;;
81884;SDS011;71340;55.154;30.266;2023-07-31T11:27:57;3.70;;;2.90;;
81884;SDS011;71340;55.154;30.266;2023-07-31T11:30:27;3.40;;;3.10;;
81884;SDS011;71340;55.154;30.266;2023-07-31T11:32:52;4.20;;;3.23;;
81884;SDS011;71340;55.154;30.266;2023-07-31T11:35:20;5.00;;;2.80;;
81884;SDS011;71340;55.154;30.266;2023-07-31T11:37:45;3.50;;;3.20;;
81884;SDS011;71340;55.154;30.266;2023-07-31T11:40:11;3.90;;;3.33;;
81884;SDS011;71340;55.154;30.266;2023-07-31T11:42:36;5.97;;;2.70;;
81884;SDS011;71340;55.154;30.266;2023-07-31T11:45:05;4.40;;;2.97;;
81884;SDS011;71340;55.154;30.266;2023-07-31T11:47:32;3.70;;;3.00;;
81884;SDS011;71340;55.154;30.266;2023-07-31T11:50:05;4.85;;;3.78;;
81884;SDS011;71340;55.154;30.266;2023-07-31T11:52:37;3.42;;;3.03;;
81884;SDS011;71340;55.154;30.266;2023-07-31T11:55:06;6.07;;;2.87;;
81884;SDS011;71340;55.154;30.266;2023-07-31T11:57:34;3.33;;;2.55;;
81884;SDS011;71340;55.154;30.266;2023-07-31T12:00:00;4.32;;;3.05;;
81884;SDS011;71340;55.154;30.266;2023-07-31T12:02:26;3.33;;;2.80;;
81884;SDS011;71340;55.154;30.266;2023-07-31T12:04:51;3.87;;;2.83;;
81884;SDS011;71340;55.154;30.266;2023-07-31T12:07:17;4.20;;;3.30;;
81884;SDS011;71340;55.154;30.266;2023-07-31T12:09:52;3.20;;;2.90;;
81884;SDS011;71340;55.154;30.266;2023-07-31T12:12:24;3.65;;;3.00;;
81884;SDS011;71340;55.154;30.266;2023-07-31T12:14:50;3.70;;;2.97;;
81884;SDS011;71340;55.154;30.266;2023-07-31T12:17:17;3.00;;;2.70;;
81884;SDS011;71340;55.154;30.266;2023-07-31T12:19:43;3.72;;;3.17;;
81884;SDS011;71340;55.154;30.266;2023-07-31T12:22:13;3.80;;;3.37;;
81884;SDS011;71340;55.154;30.266;2023-07-31T12:24:43;4.10;;;2.75;;
81884;SDS011;71340;55.154;30.266;2023-07-31T12:27:12;5.47;;;3.03;;
81884;SDS011;71340;55.154;30.266;2023-07-31T12:29:39;3.30;;;2.90;;
81884;SDS011;71340;55.154;30.266;2023-07-31T12:32:22;3.10;;;2.80;;
81884;SDS011;71340;55.154;30.266;2023-07-31T12:34:49;3.27;;;2.90;;
81884;SDS011;71340;55.154;30.266;2023-07-31T12:37:14;3.23;;;2.50;;
81884;SDS011;71340;55.154;30.266;2023-07-31T12:39:39;4.20;;;3.00;;
81884;SDS011;71340;55.154;30.266;2023-07-31T12:42:05;3.30;;;3.00;;
81884;SDS011;71340;55.154;30.266;2023-07-31T12:44:31;7.03;;;3.22;;
81884;SDS011;71340;55.154;30.266;2023-07-31T12:46:56;3.13;;;2.83;;
81884;SDS011;71340;55.154;30.266;2023-07-31T12:49:22;3.50;;;3.03;;
81884;SDS011;71340;55.154;30.266;2023-07-31T12:51:47;4.50;;;2.60;;
81884;SDS011;71340;55.154;30.266;2023-07-31T12:54:12;3.58;;;2.53;;
81884;SDS011;71340;55.154;30.266;2023-07-31T12:56:38;5.30;;;3.17;;
81884;SDS011;71340;55.154;30.266;2023-07-31T12:59:03;3.50;;;2.73;;
81884;SDS011;71340;55.154;30.266;2023-07-31T13:01:29;2.90;;;2.47;;
81884;SDS011;71340;55.154;30.266;2023-07-31T13:03:54;3.97;;;2.77;;
81884;SDS011;71340;55.154;30.266;2023-07-31T13:06:19;4.63;;;2.57;;
81884;SDS011;71340;55.154;30.266;2023-07-31T13:08:45;3.00;;;2.70;;
81884;SDS011;71340;55.154;30.266;2023-07-31T13:11:10;3.57;;;3.10;;
81884;SDS011;71340;55.154;30.266;2023-07-31T13:13:35;3.70;;;2.83;;
81884;SDS011;71340;55.154;30.266;2023-07-31T13:16:01;3.03;;;2.73;;
81884;SDS011;71340;55.154;30.266;2023-07-31T13:18:26;5.53;;;2.90;;
81884;SDS011;71340;55.154;30.266;2023-07-31T13:20:52;5.53;;;3.38;;
81884;SDS011;71340;55.154;30.266;2023-07-31T13:23:17;3.17;;;2.87;;
81884;SDS011;71340;55.154;30.266;2023-07-31T13:25:42;3.23;;;2.80;;
81884;SDS011;71340;55.154;30.266;2023-07-31T13:28:08;3.37;;;3.07;;
81884;SDS011;71340;55.154;30.266;2023-07-31T13:30:33;3.30;;;3.00;;
81884;SDS011;71340;55.154;30.266;2023-07-31T13:32:59;3.20;;;2.90;;
81884;SDS011;71340;55.154;30.266;2023-07-31T13:35:24;3.03;;;2.72;;
81884;SDS011;71340;55.154;30.266;2023-07-31T13:37:49;3.63;;;3.30;;
81884;SDS011;71340;55.154;30.266;2023-07-31T13:40:15;4.83;;;3.10;;
81884;SDS011;71340;55.154;30.266;2023-07-31T13:42:40;3.70;;;3.40;;
81884;SDS011;71340;55.154;30.266;2023-07-31T13:45:05;4.53;;;3.43;;
81884;SDS011;71340;55.154;30.266;2023-07-31T13:47:31;4.93;;;4.50;;
81884;SDS011;71340;55.154;30.266;2023-07-31T13:49:57;4.67;;;3.70;;
81884;SDS011;71340;55.154;30.266;2023-07-31T13:52:22;3.83;;;3.17;;
81884;SDS011;71340;55.154;30.266;2023-07-31T13:54:48;3.95;;;3.50;;
81884;SDS011;71340;55.154;30.266;2023-07-31T13:57:13;4.33;;;3.57;;
81884;SDS011;71340;55.154;30.266;2023-07-31T13:59:38;6.93;;;4.00;;
81884;SDS011;71340;55.154;30.266;2023-07-31T14:02:04;3.83;;;3.53;;
81884;SDS011;71340;55.154;30.266;2023-07-31T14:04:29;5.27;;;3.80;;
81884;SDS011;71340;55.154;30.266;2023-07-31T14:06:55;4.03;;;3.73;;
81884;SDS011;71340;55.154;30.266;2023-07-31T14:09:21;4.00;;;3.60;;
81884;SDS011;71340;55.154;30.266;2023-07-31T14:11:47;4.00;;;3.67;;
81884;SDS011;71340;55.154;30.266;2023-07-31T14:14:12;4.25;;;3.85;;
81884;SDS011;71340;55.154;30.266;2023-07-31T14:16:38;4.53;;;3.83;;
81884;SDS011;71340;55.154;30.266;2023-07-31T14:19:04;3.87;;;3.57;;
81884;SDS011;71340;55.154;30.266;2023-07-31T14:21:29;5.22;;;3.97;;
81884;SDS011;71340;55.154;30.266;2023-07-31T14:23:54;5.03;;;3.97;;
81884;SDS011;71340;55.154;30.266;2023-07-31T14:26:20;4.10;;;3.80;;
81884;SDS011;71340;55.154;30.266;2023-07-31T14:28:45;4.30;;;3.90;;
81884;SDS011;71340;55.154;30.266;2023-07-31T14:31:11;3.90;;;3.60;;
81884;SDS011;71340;55.154;30.266;2023-07-31T14:33:36;4.00;;;3.70;;
81884;SDS011;71340;55.154;30.266;2023-07-31T14:36:02;4.65;;;3.55;;
81884;SDS011;71340;55.154;30.266;2023-07-31T14:38:27;4.07;;;3.60;;